sensor_id;sensor_type;location;lat;lon;timestamp;pressure;altitude;pressure_sealevel;temperature;humidity
63321;BME280;49449;48.800;9.534;2023-05-20T00:01:01;98667.72;;;13.00;40.53
63321;BME280;49449;48.800;9.534;2023-05-20T00:03:29;98670.84;;;12.97;40.72
63321;BME280;49449;48.800;9.534;2023-05-20T00:05:58;98671.44;;;12.87;41.06
63321;BME280;49449;48.800;9.534;2023-05-20T00:08:26;98667.13;;;12.81;41.15
63321;BME280;49449;48.800;9.534;2023-05-20T00:10:54;98674.28;;;12.80;41.15
63321;BME280;49449;48.800;9.534;2023-05-20T00:13:22;98674.38;;;12.85;41.14
63321;BME280;49449;48.800;9.534;2023-05-20T00:15:51;98668.31;;;12.90;40.89
63321;BME280;49449;48.800;9.534;2023-05-20T00:18:18;98668.09;;;12.92;41.01
63321;BME280;49449;48.800;9.534;2023-05-20T00:20:46;98670.75;;;12.92;41.00
63321;BME280;49449;48.800;9.534;2023-05-20T00:23:15;98671.13;;;12.83;41.18
63321;BME280;49449;48.800;9.534;2023-05-20T00:25:43;98666.88;;;12.82;41.19
63321;BME280;49449;48.800;9.534;2023-05-20T00:28:11;98670.00;;;12.79;41.36
63321;BME280;49449;48.800;9.534;2023-05-20T00:30:39;98672.75;;;12.84;41.14
63321;BME280;49449;48.800;9.534;2023-05-20T00:33:07;98659.25;;;12.86;41.12
63321;BME280;49449;48.800;9.534;2023-05-20T00:35:35;98659.56;;;12.89;41.05
63321;BME280;49449;48.800;9.534;2023-05-20T00:38:05;98657.97;;;12.88;40.99
63321;BME280;49449;48.800;9.534;2023-05-20T00:40:34;98659.72;;;12.83;41.18
63321;BME280;49449;48.800;9.534;2023-05-20T00:43:01;98662.16;;;12.73;41.49
63321;BME280;49449;48.800;9.534;2023-05-20T00:45:30;98659.63;;;12.78;41.19
63321;BME280;49449;48.800;9.534;2023-05-20T00:47:58;98653.31;;;12.79;41.37
63321;BME280;49449;48.800;9.534;2023-05-20T00:50:27;98652.47;;;12.78;41.38
63321;BME280;49449;48.800;9.534;2023-05-20T00:52:55;98653.53;;;12.77;41.37
63321;BME280;49449;48.800;9.534;2023-05-20T00:55:25;98656.19;;;12.77;41.35
63321;BME280;49449;48.800;9.534;2023-05-20T00:57:54;98661.28;;;12.67;41.67
63321;BME280;49449;48.800;9.534;2023-05-20T01:00:22;98640.06;;;12.67;41.56
63321;BME280;49449;48.800;9.534;2023-05-20T01:02:50;98648.72;;;12.62;41.69
63321;BME280;49449;48.800;9.534;2023-05-20T01:05:18;98653.00;;;12.63;41.88
63321;BME280;49449;48.800;9.534;2023-05-20T01:07:46;98649.66;;;12.68;41.71
63321;BME280;49449;48.800;9.534;2023-05-20T01:10:14;98651.00;;;12.70;41.65
63321;BME280;49449;48.800;9.534;2023-05-20T01:12:44;98651.72;;;12.66;41.78
63321;BME280;49449;48.800;9.534;2023-05-20T01:15:14;98640.78;;;12.62;41.85
63321;BME280;49449;48.800;9.534;2023-05-20T01:17:45;98634.78;;;12.67;41.80
63321;BME280;49449;48.800;9.534;2023-05-20T01:20:14;98642.97;;;12.65;41.64
63321;BME280;49449;48.800;9.534;2023-05-20T01:22:52;98637.00;;;12.58;41.97
63321;BME280;49449;48.800;9.534;2023-05-20T01:25:20;98638.13;;;12.62;41.89
63321;BME280;49449;48.800;9.534;2023-05-20T01:27:49;98636.69;;;12.55;42.01
63321;BME280;49449;48.800;9.534;2023-05-20T01:30:18;98631.03;;;12.51;42.03
63321;BME280;49449;48.800;9.534;2023-05-20T01:32:49;98624.13;;;12.50;42.12
63321;BME280;49449;48.800;9.534;2023-05-20T01:35:19;98620.13;;;12.47;42.15
63321;BME280;49449;48.800;9.534;2023-05-20T01:37:48;98627.75;;;12.44;42.31
63321;BME280;49449;48.800;9.534;2023-05-20T01:40:17;98628.84;;;12.31;42.44
63321;BME280;49449;48.800;9.534;2023-05-20T01:42:45;98626.09;;;12.26;42.44
63321;BME280;49449;48.800;9.534;2023-05-20T01:45:18;98621.34;;;12.28;42.46
63321;BME280;49449;48.800;9.534;2023-05-20T01:47:46;98627.44;;;12.28;42.39
63321;BME280;49449;48.800;9.534;2023-05-20T01:50:15;98626.09;;;12.26;42.73
63321;BME280;49449;48.800;9.534;2023-05-20T01:52:43;98623.91;;;12.23;42.71
63321;BME280;49449;48.800;9.534;2023-05-20T01:55:12;98622.66;;;12.25;42.66
63321;BME280;49449;48.800;9.534;2023-05-20T01:57:40;98618.72;;;12.28;42.56
63321;BME280;49449;48.800;9.534;2023-05-20T02:00:08;98621.13;;;12.29;42.47
63321;BME280;49449;48.800;9.534;2023-05-20T02:02:36;98617.09;;;12.27;42.55
63321;BME280;49449;48.800;9.534;2023-05-20T02:05:04;98614.22;;;12.28;42.60
63321;BME280;49449;48.800;9.534;2023-05-20T02:07:32;98613.19;;;12.29;42.55
63321;BME280;49449;48.800;9.534;2023-05-20T02:10:00;98608.91;;;12.28;42.68
63321;BME280;49449;48.800;9.534;2023-05-20T02:12:29;98609.81;;;12.34;42.69
63321;BME280;49449;48.800;9.534;2023-05-20T02:14:57;98607.75;;;12.36;42.52
63321;BME280;49449;48.800;9.534;2023-05-20T02:17:25;98605.09;;;12.36;42.54
63321;BME280;49449;48.800;9.534;2023-05-20T02:19:52;98598.19;;;12.35;42.50
63321;BME280;49449;48.800;9.534;2023-05-20T02:22:20;98607.25;;;12.39;42.50
63321;BME280;49449;48.800;9.534;2023-05-20T02:24:48;98609.34;;;12.37;42.48
63321;BME280;49449;48.800;9.534;2023-05-20T02:27:16;98609.91;;;12.39;42.44
63321;BME280;49449;48.800;9.534;2023-05-20T02:29:45;98608.88;;;12.40;42.46
63321;BME280;49449;48.800;9.534;2023-05-20T02:32:13;98613.19;;;12.29;42.72
63321;BME280;49449;48.800;9.534;2023-05-20T02:34:41;98616.38;;;12.31;42.65
63321;BME280;49449;48.800;9.534;2023-05-20T02:37:08;98622.38;;;12.27;42.84
63321;BME280;49449;48.800;9.534;2023-05-20T02:39:36;98614.00;;;12.18;42.80
63321;BME280;49449;48.800;9.534;2023-05-20T02:42:04;98615.97;;;12.23;42.71
63321;BME280;49449;48.800;9.534;2023-05-20T02:44:32;98616.91;;;12.17;42.99
63321;BME280;49449;48.800;9.534;2023-05-20T02:47:01;98610.94;;;12.09;43.19
63321;BME280;49449;48.800;9.534;2023-05-20T02:49:29;98619.25;;;12.13;43.04
63321;BME280;49449;48.800;9.534;2023-05-20T02:51:56;98615.06;;;12.17;43.15
63321;BME280;49449;48.800;9.534;2023-05-20T02:54:24;98612.19;;;12.19;42.87
63321;BME280;49449;48.800;9.534;2023-05-20T02:56:54;98612.19;;;12.19;42.97
63321;BME280;49449;48.800;9.534;2023-05-20T02:59:22;98619.63;;;12.22;42.94
63321;BME280;49449;48.800;9.534;2023-05-20T03:01:50;98621.50;;;12.21;42.95
63321;BME280;49449;48.800;9.534;2023-05-20T03:04:19;98622.28;;;12.22;42.93
63321;BME280;49449;48.800;9.534;2023-05-20T03:06:47;98631.97;;;12.16;43.06
63321;BME280;49449;48.800;9.534;2023-05-20T03:09:17;98625.00;;;12.10;43.30
63321;BME280;49449;48.800;9.534;2023-05-20T03:11:45;98619.13;;;12.08;43.32
63321;BME280;49449;48.800;9.534;2023-05-20T03:14:13;98613.34;;;12.11;43.27
63321;BME280;49449;48.800;9.534;2023-05-20T03:16:41;98612.66;;;12.16;43.10
63321;BME280;49449;48.800;9.534;2023-05-20T03:19:08;98617.72;;;12.17;43.23
63321;BME280;49449;48.800;9.534;2023-05-20T03:21:38;98615.88;;;12.18;43.22
63321;BME280;49449;48.800;9.534;2023-05-20T03:24:06;98612.75;;;12.21;43.21
63321;BME280;49449;48.800;9.534;2023-05-20T03:26:34;98607.00;;;12.24;43.01
63321;BME280;49449;48.800;9.534;2023-05-20T03:29:04;98605.38;;;12.23;43.10
63321;BME280;49449;48.800;9.534;2023-05-20T03:31:31;98608.00;;;12.23;43.00
63321;BME280;49449;48.800;9.534;2023-05-20T03:33:59;98608.81;;;12.23;43.20
63321;BME280;49449;48.800;9.534;2023-05-20T03:36:27;98614.59;;;12.20;43.34
63321;BME280;49449;48.800;9.534;2023-05-20T03:38:56;98616.06;;;11.99;43.67
63321;BME280;49449;48.800;9.534;2023-05-20T03:41:24;98618.13;;;11.97;43.75
63321;BME280;49449;48.800;9.534;2023-05-20T03:43:52;98619.25;;;12.01;43.63
63321;BME280;49449;48.800;9.534;2023-05-20T03:46:20;98624.00;;;11.99;43.73
63321;BME280;49449;48.800;9.534;2023-05-20T03:48:48;98622.38;;;11.98;43.86
63321;BME280;49449;48.800;9.534;2023-05-20T03:51:16;98621.34;;;11.99;43.65
63321;BME280;49449;48.800;9.534;2023-05-20T03:53:44;98622.47;;;12.03;43.72
63321;BME280;49449;48.800;9.534;2023-05-20T03:56:13;98626.47;;;12.06;43.67
63321;BME280;49449;48.800;9.534;2023-05-20T03:58:41;98623.03;;;12.05;43.73
63321;BME280;49449;48.800;9.534;2023-05-20T04:01:09;98616.50;;;12.08;43.71
63321;BME280;49449;48.800;9.534;2023-05-20T04:03:39;98617.28;;;12.08;43.53
63321;BME280;49449;48.800;9.534;2023-05-20T04:06:09;98623.38;;;12.09;43.61
63321;BME280;49449;48.800;9.534;2023-05-20T04:08:36;98620.97;;;12.07;43.66
63321;BME280;49449;48.800;9.534;2023-05-20T04:11:04;98613.94;;;12.13;43.64
63321;BME280;49449;48.800;9.534;2023-05-20T04:13:33;98622.22;;;12.17;43.46
63321;BME280;49449;48.800;9.534;2023-05-20T04:16:01;98618.75;;;12.16;43.73
63321;BME280;49449;48.800;9.534;2023-05-20T04:18:30;98626.81;;;12.09;43.82
63321;BME280;49449;48.800;9.534;2023-05-20T04:20:58;98622.13;;;12.11;43.93
63321;BME280;49449;48.800;9.534;2023-05-20T04:23:27;98623.25;;;12.16;43.77
63321;BME280;49449;48.800;9.534;2023-05-20T04:25:54;98620.69;;;12.21;43.63
63321;BME280;49449;48.800;9.534;2023-05-20T04:28:27;98615.72;;;12.24;43.66
63321;BME280;49449;48.800;9.534;2023-05-20T04:31:00;98617.69;;;12.29;43.61
63321;BME280;49449;48.800;9.534;2023-05-20T04:33:30;98616.03;;;12.40;43.40
63321;BME280;49449;48.800;9.534;2023-05-20T04:35:58;98618.03;;;12.49;43.35
63321;BME280;49449;48.800;9.534;2023-05-20T04:38:26;98616.03;;;12.57;43.09
63321;BME280;49449;48.800;9.534;2023-05-20T04:40:55;98611.47;;;12.69;42.99
63321;BME280;49449;48.800;9.534;2023-05-20T04:43:24;98612.16;;;12.76;42.78
63321;BME280;49449;48.800;9.534;2023-05-20T04:45:55;98621.72;;;12.77;42.97
63321;BME280;49449;48.800;9.534;2023-05-20T04:48:24;98625.03;;;12.84;42.63
63321;BME280;49449;48.800;9.534;2023-05-20T04:50:52;98614.50;;;12.89;42.67
63321;BME280;49449;48.800;9.534;2023-05-20T04:53:20;98620.03;;;12.88;42.85
63321;BME280;49449;48.800;9.534;2023-05-20T04:55:53;98618.66;;;13.02;42.57
63321;BME280;49449;48.800;9.534;2023-05-20T04:58:22;98624.28;;;13.06;42.51
63321;BME280;49449;48.800;9.534;2023-05-20T05:00:51;98619.22;;;13.04;42.38
63321;BME280;49449;48.800;9.534;2023-05-20T05:03:18;98615.78;;;13.04;42.51
63321;BME280;49449;48.800;9.534;2023-05-20T05:05:48;98616.81;;;13.03;42.71
63321;BME280;49449;48.800;9.534;2023-05-20T05:08:16;98609.75;;;13.08;42.65
63321;BME280;49449;48.800;9.534;2023-05-20T05:10:44;98600.59;;;13.16;42.56
63321;BME280;49449;48.800;9.534;2023-05-20T05:13:12;98596.63;;;13.19;42.47
63321;BME280;49449;48.800;9.534;2023-05-20T05:15:39;98595.91;;;13.23;42.55
63321;BME280;49449;48.800;9.534;2023-05-20T05:18:07;98599.13;;;13.25;42.36
63321;BME280;49449;48.800;9.534;2023-05-20T05:20:35;98597.34;;;13.31;42.33
63321;BME280;49449;48.800;9.534;2023-05-20T05:23:04;98593.97;;;13.36;42.41
63321;BME280;49449;48.800;9.534;2023-05-20T05:25:32;98591.38;;;13.41;42.30
63321;BME280;49449;48.800;9.534;2023-05-20T05:28:00;98596.28;;;13.49;42.09
63321;BME280;49449;48.800;9.534;2023-05-20T05:30:28;98581.53;;;13.58;41.99
63321;BME280;49449;48.800;9.534;2023-05-20T05:32:55;98575.31;;;13.70;41.65
63321;BME280;49449;48.800;9.534;2023-05-20T05:35:23;98575.50;;;13.85;41.65
63321;BME280;49449;48.800;9.534;2023-05-20T05:37:51;98581.00;;;14.00;41.60
63321;BME280;49449;48.800;9.534;2023-05-20T05:40:23;98577.94;;;14.14;41.85
63321;BME280;49449;48.800;9.534;2023-05-20T05:42:51;98574.41;;;14.30;41.74
63321;BME280;49449;48.800;9.534;2023-05-20T05:45:19;98571.50;;;14.37;41.38
63321;BME280;49449;48.800;9.534;2023-05-20T05:47:46;98572.13;;;14.44;40.80
63321;BME280;49449;48.800;9.534;2023-05-20T05:50:14;98580.31;;;14.65;40.80
63321;BME280;49449;48.800;9.534;2023-05-20T05:52:42;98571.63;;;14.74;40.46
63321;BME280;49449;48.800;9.534;2023-05-20T05:55:10;98568.56;;;14.93;40.00
63321;BME280;49449;48.800;9.534;2023-05-20T05:57:40;98569.47;;;15.09;40.15
63321;BME280;49449;48.800;9.534;2023-05-20T06:00:08;98570.34;;;15.25;39.64
63321;BME280;49449;48.800;9.534;2023-05-20T06:02:37;98565.94;;;15.41;39.20
63321;BME280;49449;48.800;9.534;2023-05-20T06:05:05;98562.31;;;15.57;38.78
63321;BME280;49449;48.800;9.534;2023-05-20T06:07:33;98562.34;;;15.67;38.47
63321;BME280;49449;48.800;9.534;2023-05-20T06:10:01;98565.25;;;15.66;38.20
63321;BME280;49449;48.800;9.534;2023-05-20T06:12:29;98569.44;;;15.51;38.15
63321;BME280;49449;48.800;9.534;2023-05-20T06:14:58;98563.88;;;15.53;38.25
63321;BME280;49449;48.800;9.534;2023-05-20T06:17:28;98558.56;;;15.58;38.19
63321;BME280;49449;48.800;9.534;2023-05-20T06:19:56;98562.31;;;15.57;37.99
63321;BME280;49449;48.800;9.534;2023-05-20T06:22:26;98552.78;;;15.71;38.05
63321;BME280;49449;48.800;9.534;2023-05-20T06:24:54;98550.66;;;15.74;38.31
63321;BME280;49449;48.800;9.534;2023-05-20T06:27:27;98548.75;;;15.69;38.09
63321;BME280;49449;48.800;9.534;2023-05-20T06:29:55;98551.97;;;15.71;38.03
63321;BME280;49449;48.800;9.534;2023-05-20T06:32:24;98552.53;;;15.73;38.48
63321;BME280;49449;48.800;9.534;2023-05-20T06:34:52;98546.91;;;15.75;38.03
63321;BME280;49449;48.800;9.534;2023-05-20T06:37:20;98540.50;;;15.70;38.27
63321;BME280;49449;48.800;9.534;2023-05-20T06:39:50;98538.09;;;15.69;38.26
63321;BME280;49449;48.800;9.534;2023-05-20T06:42:19;98534.38;;;15.70;38.13
63321;BME280;49449;48.800;9.534;2023-05-20T06:44:47;98539.47;;;15.82;38.34
63321;BME280;49449;48.800;9.534;2023-05-20T06:47:16;98530.16;;;15.79;38.11
63321;BME280;49449;48.800;9.534;2023-05-20T06:49:45;98533.88;;;15.73;37.78
63321;BME280;49449;48.800;9.534;2023-05-20T06:52:13;98535.47;;;15.74;37.85
63321;BME280;49449;48.800;9.534;2023-05-20T06:54:42;98537.34;;;15.79;37.64
63321;BME280;49449;48.800;9.534;2023-05-20T06:57:09;98536.28;;;15.80;38.12
63321;BME280;49449;48.800;9.534;2023-05-20T06:59:38;98537.06;;;15.75;38.08
63321;BME280;49449;48.800;9.534;2023-05-20T07:02:06;98527.75;;;15.78;37.88
63321;BME280;49449;48.800;9.534;2023-05-20T07:04:34;98529.56;;;15.62;38.30
63321;BME280;49449;48.800;9.534;2023-05-20T07:07:03;98533.50;;;15.44;38.26
63321;BME280;49449;48.800;9.534;2023-05-20T07:09:31;98536.66;;;15.41;38.61
63321;BME280;49449;48.800;9.534;2023-05-20T07:11:58;98518.81;;;15.36;38.45
63321;BME280;49449;48.800;9.534;2023-05-20T07:14:26;98524.06;;;15.26;38.81
63321;BME280;49449;48.800;9.534;2023-05-20T07:16:54;98521.38;;;15.21;38.46
63321;BME280;49449;48.800;9.534;2023-05-20T07:19:21;98515.75;;;15.12;38.74
63321;BME280;49449;48.800;9.534;2023-05-20T07:21:49;98510.41;;;15.12;38.76
63321;BME280;49449;48.800;9.534;2023-05-20T07:24:18;98513.91;;;15.18;38.47
63321;BME280;49449;48.800;9.534;2023-05-20T07:26:46;98515.22;;;15.68;38.17
63321;BME280;49449;48.800;9.534;2023-05-20T07:29:14;98513.25;;;15.43;37.96
63321;BME280;49449;48.800;9.534;2023-05-20T07:31:42;98507.28;;;15.25;38.32
63321;BME280;49449;48.800;9.534;2023-05-20T07:34:09;98512.19;;;15.44;38.42
63321;BME280;49449;48.800;9.534;2023-05-20T07:36:37;98513.53;;;15.51;38.09
63321;BME280;49449;48.800;9.534;2023-05-20T07:39:05;98506.16;;;15.69;37.96
63321;BME280;49449;48.800;9.534;2023-05-20T07:41:37;98508.66;;;16.06;37.73
63321;BME280;49449;48.800;9.534;2023-05-20T07:44:05;98496.69;;;16.24;37.03
63321;BME280;49449;48.800;9.534;2023-05-20T07:46:34;98510.03;;;16.30;37.13
63321;BME280;49449;48.800;9.534;2023-05-20T07:49:03;98507.88;;;16.16;36.89
63321;BME280;49449;48.800;9.534;2023-05-20T07:51:31;98506.03;;;16.37;36.83
63321;BME280;49449;48.800;9.534;2023-05-20T07:53:59;98496.41;;;16.31;36.90
63321;BME280;49449;48.800;9.534;2023-05-20T07:56:27;98483.38;;;16.19;37.15
63321;BME280;49449;48.800;9.534;2023-05-20T07:58:57;98477.50;;;16.33;37.12
63321;BME280;49449;48.800;9.534;2023-05-20T08:01:26;98483.63;;;16.48;36.70
63321;BME280;49449;48.800;9.534;2023-05-20T08:03:54;98479.38;;;16.53;36.69
63321;BME280;49449;48.800;9.534;2023-05-20T08:06:23;98480.66;;;16.71;36.49
63321;BME280;49449;48.800;9.534;2023-05-20T08:08:52;98483.06;;;16.77;36.53
63321;BME280;49449;48.800;9.534;2023-05-20T08:11:20;98478.28;;;16.84;36.51
63321;BME280;49449;48.800;9.534;2023-05-20T08:13:48;98488.16;;;16.53;36.64
63321;BME280;49449;48.800;9.534;2023-05-20T08:16:17;98484.44;;;16.54;36.83
63321;BME280;49449;48.800;9.534;2023-05-20T08:18:45;98476.13;;;16.87;36.63
63321;BME280;49449;48.800;9.534;2023-05-20T08:21:13;98475.03;;;16.98;36.68
63321;BME280;49449;48.800;9.534;2023-05-20T08:23:41;98478.78;;;17.02;36.09
63321;BME280;49449;48.800;9.534;2023-05-20T08:26:09;98469.88;;;17.22;35.72
63321;BME280;49449;48.800;9.534;2023-05-20T08:28:37;98483.94;;;17.43;35.38
63321;BME280;49449;48.800;9.534;2023-05-20T08:31:05;98472.88;;;17.70;34.99
63321;BME280;49449;48.800;9.534;2023-05-20T08:33:34;98472.75;;;17.91;34.68
63321;BME280;49449;48.800;9.534;2023-05-20T08:36:02;98475.06;;;18.08;34.19
63321;BME280;49449;48.800;9.534;2023-05-20T08:38:30;98471.38;;;18.38;33.60
63321;BME280;49449;48.800;9.534;2023-05-20T08:40:58;98472.28;;;18.18;33.32
63321;BME280;49449;48.800;9.534;2023-05-20T08:43:27;98464.38;;;18.08;33.18
63321;BME280;49449;48.800;9.534;2023-05-20T08:45:55;98462.00;;;18.01;33.43
63321;BME280;49449;48.800;9.534;2023-05-20T08:48:25;98471.13;;;18.34;33.34
63321;BME280;49449;48.800;9.534;2023-05-20T08:50:57;98467.28;;;18.46;33.44
63321;BME280;49449;48.800;9.534;2023-05-20T08:53:25;98465.41;;;18.76;33.62
63321;BME280;49449;48.800;9.534;2023-05-20T08:55:54;98463.78;;;19.04;33.14
63321;BME280;49449;48.800;9.534;2023-05-20T08:58:25;98461.00;;;19.14;32.75
63321;BME280;49449;48.800;9.534;2023-05-20T09:00:53;98461.44;;;19.21;32.39
63321;BME280;49449;48.800;9.534;2023-05-20T09:03:21;98464.56;;;19.04;32.95
63321;BME280;49449;48.800;9.534;2023-05-20T09:05:51;98458.91;;;18.82;32.97
63321;BME280;49449;48.800;9.534;2023-05-20T09:08:23;98467.31;;;18.99;32.42
63321;BME280;49449;48.800;9.534;2023-05-20T09:10:52;98466.63;;;19.13;32.19
63321;BME280;49449;48.800;9.534;2023-05-20T09:13:20;98463.94;;;19.13;32.48
63321;BME280;49449;48.800;9.534;2023-05-20T09:15:50;98460.47;;;19.12;32.60
63321;BME280;49449;48.800;9.534;2023-05-20T09:18:18;98457.66;;;19.22;32.39
63321;BME280;49449;48.800;9.534;2023-05-20T09:20:47;98454.00;;;19.37;32.61
63321;BME280;49449;48.800;9.534;2023-05-20T09:23:18;98456.03;;;19.26;32.65
63321;BME280;49449;48.800;9.534;2023-05-20T09:25:48;98456.19;;;19.35;32.07
63321;BME280;49449;48.800;9.534;2023-05-20T09:28:18;98443.94;;;19.48;32.00
63321;BME280;49449;48.800;9.534;2023-05-20T09:30:48;98448.69;;;19.75;31.61
63321;BME280;49449;48.800;9.534;2023-05-20T09:33:16;98457.91;;;19.88;31.26
63321;BME280;49449;48.800;9.534;2023-05-20T09:35:44;98450.94;;;19.87;30.81
63321;BME280;49449;48.800;9.534;2023-05-20T09:38:14;98434.00;;;19.73;30.89
63321;BME280;49449;48.800;9.534;2023-05-20T09:40:43;98453.19;;;19.80;31.61
63321;BME280;49449;48.800;9.534;2023-05-20T09:43:13;98439.41;;;19.86;31.08
63321;BME280;49449;48.800;9.534;2023-05-20T09:45:43;98443.28;;;20.32;31.29
63321;BME280;49449;48.800;9.534;2023-05-20T09:48:11;98442.00;;;20.43;30.66
63321;BME280;49449;48.800;9.534;2023-05-20T09:50:40;98448.97;;;20.45;29.84
63321;BME280;49449;48.800;9.534;2023-05-20T09:53:09;98437.63;;;20.15;30.87
63321;BME280;49449;48.800;9.534;2023-05-20T09:55:38;98435.56;;;20.26;30.52
63321;BME280;49449;48.800;9.534;2023-05-20T09:58:08;98432.03;;;20.30;30.21
63321;BME280;49449;48.800;9.534;2023-05-20T10:00:39;98437.41;;;20.30;30.42
63321;BME280;49449;48.800;9.534;2023-05-20T10:03:07;98426.69;;;20.44;29.65
63321;BME280;49449;48.800;9.534;2023-05-20T10:05:37;98417.31;;;20.28;29.50
63321;BME280;49449;48.800;9.534;2023-05-20T10:08:41;98414.41;;;20.24;29.88
63321;BME280;49449;48.800;9.534;2023-05-20T10:11:27;98417.34;;;20.41;29.65
63321;BME280;49449;48.800;9.534;2023-05-20T10:14:14;98411.88;;;20.33;29.58
63321;BME280;49449;48.800;9.534;2023-05-20T10:16:50;98410.06;;;20.28;29.88
63321;BME280;49449;48.800;9.534;2023-05-20T10:19:27;98412.00;;;20.22;29.76
63321;BME280;49449;48.800;9.534;2023-05-20T10:21:56;98409.28;;;20.09;29.66
63321;BME280;49449;48.800;9.534;2023-05-20T10:24:31;98396.09;;;19.79;29.96
63321;BME280;49449;48.800;9.534;2023-05-20T10:27:01;98398.63;;;19.90;29.77
63321;BME280;49449;48.800;9.534;2023-05-20T10:29:41;98390.19;;;19.96;30.40
63321;BME280;49449;48.800;9.534;2023-05-20T10:32:11;98390.59;;;20.03;30.46
63321;BME280;49449;48.800;9.534;2023-05-20T10:34:46;98401.88;;;19.86;30.47
63321;BME280;49449;48.800;9.534;2023-05-20T10:37:26;98381.97;;;20.07;30.15
63321;BME280;49449;48.800;9.534;2023-05-20T10:40:04;98387.50;;;19.96;29.98
63321;BME280;49449;48.800;9.534;2023-05-20T10:42:32;98382.88;;;20.02;30.02
63321;BME280;49449;48.800;9.534;2023-05-20T10:45:02;98378.69;;;20.29;29.90
63321;BME280;49449;48.800;9.534;2023-05-20T10:47:31;98377.22;;;20.17;30.19
63321;BME280;49449;48.800;9.534;2023-05-20T10:49:59;98378.50;;;20.06;29.37
63321;BME280;49449;48.800;9.534;2023-05-20T10:52:32;98378.63;;;20.15;29.51
63321;BME280;49449;48.800;9.534;2023-05-20T10:55:00;98366.38;;;20.09;29.74
63321;BME280;49449;48.800;9.534;2023-05-20T10:57:29;98354.75;;;20.32;29.66
63321;BME280;49449;48.800;9.534;2023-05-20T10:59:57;98364.44;;;20.14;30.15
63321;BME280;49449;48.800;9.534;2023-05-20T11:02:26;98362.44;;;20.20;29.89
63321;BME280;49449;48.800;9.534;2023-05-20T11:04:56;98357.69;;;20.17;29.86
63321;BME280;49449;48.800;9.534;2023-05-20T11:07:25;98345.69;;;20.28;29.78
63321;BME280;49449;48.800;9.534;2023-05-20T11:09:54;98356.47;;;20.23;30.05
63321;BME280;49449;48.800;9.534;2023-05-20T11:12:22;98351.56;;;19.97;29.49
63321;BME280;49449;48.800;9.534;2023-05-20T11:14:51;98343.69;;;20.20;29.58
63321;BME280;49449;48.800;9.534;2023-05-20T11:17:19;98343.84;;;20.42;29.76
63321;BME280;49449;48.800;9.534;2023-05-20T11:19:47;98339.47;;;20.60;29.73
63321;BME280;49449;48.800;9.534;2023-05-20T11:22:16;98339.47;;;20.47;29.09
63321;BME280;49449;48.800;9.534;2023-05-20T11:24:45;98334.97;;;20.56;28.84
63321;BME280;49449;48.800;9.534;2023-05-20T11:27:13;98326.44;;;20.68;28.87
63321;BME280;49449;48.800;9.534;2023-05-20T11:29:41;98330.47;;;20.79;28.73
63321;BME280;49449;48.800;9.534;2023-05-20T11:32:09;98322.13;;;20.80;28.93
63321;BME280;49449;48.800;9.534;2023-05-20T11:34:38;98319.66;;;20.70;28.79
63321;BME280;49449;48.800;9.534;2023-05-20T11:37:09;98321.25;;;20.71;29.11
63321;BME280;49449;48.800;9.534;2023-05-20T11:39:38;98326.13;;;20.55;28.43
63321;BME280;49449;48.800;9.534;2023-05-20T11:42:06;98329.81;;;20.59;28.68
63321;BME280;49449;48.800;9.534;2023-05-20T11:44:34;98319.25;;;20.63;28.23
63321;BME280;49449;48.800;9.534;2023-05-20T11:47:02;98309.56;;;20.53;28.49
63321;BME280;49449;48.800;9.534;2023-05-20T11:49:38;98309.66;;;20.62;29.21
63321;BME280;49449;48.800;9.534;2023-05-20T11:52:08;98300.84;;;20.84;28.05
63321;BME280;49449;48.800;9.534;2023-05-20T11:54:36;98301.03;;;20.88;28.81
63321;BME280;49449;48.800;9.534;2023-05-20T11:57:05;98301.69;;;20.57;28.65
63321;BME280;49449;48.800;9.534;2023-05-20T11:59:33;98299.69;;;20.49;29.25
63321;BME280;49449;48.800;9.534;2023-05-20T12:02:02;98293.75;;;20.52;28.69
63321;BME280;49449;48.800;9.534;2023-05-20T12:04:29;98291.53;;;20.68;28.89
63321;BME280;49449;48.800;9.534;2023-05-20T12:06:57;98295.28;;;20.80;28.72
63321;BME280;49449;48.800;9.534;2023-05-20T12:09:25;98300.66;;;20.80;28.92
63321;BME280;49449;48.800;9.534;2023-05-20T12:11:53;98294.44;;;20.57;28.79
63321;BME280;49449;48.800;9.534;2023-05-20T12:14:23;98300.00;;;20.47;28.56
63321;BME280;49449;48.800;9.534;2023-05-20T12:16:51;98291.13;;;20.19;29.28
63321;BME280;49449;48.800;9.534;2023-05-20T12:19:19;98284.06;;;20.23;28.77
63321;BME280;49449;48.800;9.534;2023-05-20T12:21:46;98288.09;;;20.39;28.95
63321;BME280;49449;48.800;9.534;2023-05-20T12:24:14;98284.59;;;20.53;28.77
63321;BME280;49449;48.800;9.534;2023-05-20T12:26:42;98274.25;;;20.60;28.62
63321;BME280;49449;48.800;9.534;2023-05-20T12:29:10;98278.22;;;20.63;28.81
63321;BME280;49449;48.800;9.534;2023-05-20T12:31:39;98276.03;;;20.65;28.88
63321;BME280;49449;48.800;9.534;2023-05-20T12:34:07;98281.59;;;20.68;28.72
63321;BME280;49449;48.800;9.534;2023-05-20T12:36:35;98286.09;;;20.59;28.39
63321;BME280;49449;48.800;9.534;2023-05-20T12:39:03;98284.59;;;20.39;28.45
63321;BME280;49449;48.800;9.534;2023-05-20T12:41:31;98288.84;;;20.26;28.79
63321;BME280;49449;48.800;9.534;2023-05-20T12:43:59;98278.03;;;20.45;28.65
63321;BME280;49449;48.800;9.534;2023-05-20T12:46:27;98280.53;;;20.28;28.37
63321;BME280;49449;48.800;9.534;2023-05-20T12:48:56;98271.88;;;20.45;28.49
63321;BME280;49449;48.800;9.534;2023-05-20T12:51:24;98273.66;;;20.63;28.95
63321;BME280;49449;48.800;9.534;2023-05-20T12:53:54;98270.44;;;20.75;28.25
63321;BME280;49449;48.800;9.534;2023-05-20T12:56:22;98273.91;;;20.75;27.63
63321;BME280;49449;48.800;9.534;2023-05-20T12:58:51;98266.44;;;20.86;27.50
63321;BME280;49449;48.800;9.534;2023-05-20T13:01:19;98265.16;;;20.84;27.90
63321;BME280;49449;48.800;9.534;2023-05-20T13:03:47;98256.28;;;20.97;27.98
63321;BME280;49449;48.800;9.534;2023-05-20T13:06:19;98264.38;;;20.83;28.45
63321;BME280;49449;48.800;9.534;2023-05-20T13:08:47;98260.19;;;20.91;28.20